sensor_id;sensor_type;location;lat;lon;timestamp;pressure;altitude;pressure_sealevel;temperature;humidity
36538;BME280;22545;48.892;9.138;2022-10-16T00:00:39;97935.69;;;15.13;100.00
36538;BME280;22545;48.892;9.138;2022-10-16T00:03:05;97933.38;;;15.23;100.00
36538;BME280;22545;48.892;9.138;2022-10-16T00:05:31;97933.56;;;15.20;100.00
36538;BME280;22545;48.892;9.138;2022-10-16T00:07:56;97925.69;;;15.07;100.00
36538;BME280;22545;48.892;9.138;2022-10-16T00:10:21;97917.63;;;15.12;100.00
36538;BME280;22545;48.892;9.138;2022-10-16T00:12:47;97921.97;;;15.11;100.00
36538;BME280;22545;48.892;9.138;2022-10-16T00:15:12;97918.09;;;15.04;100.00
36538;BME280;22545;48.892;9.138;2022-10-16T00:17:37;97923.81;;;15.09;100.00
36538;BME280;22545;48.892;9.138;2022-10-16T00:20:02;97920.75;;;15.02;100.00
36538;BME280;22545;48.892;9.138;2022-10-16T00:22:28;97918.84;;;14.90;100.00
36538;BME280;22545;48.892;9.138;2022-10-16T00:24:53;97914.81;;;15.00;100.00
36538;BME280;22545;48.892;9.138;2022-10-16T00:27:18;97905.47;;;14.98;100.00
36538;BME280;22545;48.892;9.138;2022-10-16T00:29:44;97908.22;;;14.95;100.00
36538;BME280;22545;48.892;9.138;2022-10-16T00:32:09;97919.63;;;14.92;100.00
36538;BME280;22545;48.892;9.138;2022-10-16T00:34:34;97919.72;;;14.91;100.00
36538;BME280;22545;48.892;9.138;2022-10-16T00:36:59;97912.84;;;14.90;100.00
36538;BME280;22545;48.892;9.138;2022-10-16T00:39:25;97925.53;;;14.94;100.00
36538;BME280;22545;48.892;9.138;2022-10-16T00:41:50;97937.94;;;15.03;100.00
36538;BME280;22545;48.892;9.138;2022-10-16T00:47:00;97931.72;;;14.92;100.00
36538;BME280;22545;48.892;9.138;2022-10-16T00:49:25;97929.97;;;14.92;100.00
36538;BME280;22545;48.892;9.138;2022-10-16T00:51:52;97930.41;;;14.84;100.00
36538;BME280;22545;48.892;9.138;2022-10-16T00:54:24;97926.88;;;14.85;100.00
36538;BME280;22545;48.892;9.138;2022-10-16T00:56:50;97934.03;;;14.96;100.00
36538;BME280;22545;48.892;9.138;2022-10-16T00:59:20;97932.22;;;14.98;100.00
36538;BME280;22545;48.892;9.138;2022-10-16T01:01:47;97927.69;;;15.02;100.00
36538;BME280;22545;48.892;9.138;2022-10-16T01:04:12;97933.19;;;15.12;100.00
36538;BME280;22545;48.892;9.138;2022-10-16T01:06:43;97941.78;;;15.12;100.00
36538;BME280;22545;48.892;9.138;2022-10-16T01:09:13;97947.78;;;15.13;100.00
36538;BME280;22545;48.892;9.138;2022-10-16T01:14:27;97948.22;;;15.05;100.00
36538;BME280;22545;48.892;9.138;2022-10-16T01:17:11;97940.72;;;15.00;100.00
36538;BME280;22545;48.892;9.138;2022-10-16T01:22:05;97937.75;;;14.92;100.00
36538;BME280;22545;48.892;9.138;2022-10-16T01:24:33;97928.38;;;14.90;100.00
36538;BME280;22545;48.892;9.138;2022-10-16T01:32:05;97941.22;;;15.07;100.00
36538;BME280;22545;48.892;9.138;2022-10-16T01:34:38;97936.53;;;14.98;100.00
36538;BME280;22545;48.892;9.138;2022-10-16T01:37:07;97938.97;;;15.01;100.00
36538;BME280;22545;48.892;9.138;2022-10-16T01:39:34;97944.16;;;15.01;100.00
36538;BME280;22545;48.892;9.138;2022-10-16T01:42:14;97936.38;;;15.01;100.00
36538;BME280;22545;48.892;9.138;2022-10-16T01:44:41;97934.72;;;15.00;100.00
36538;BME280;22545;48.892;9.138;2022-10-16T01:47:09;97929.44;;;15.01;100.00
36538;BME280;22545;48.892;9.138;2022-10-16T01:49:36;97930.94;;;15.06;100.00
36538;BME280;22545;48.892;9.138;2022-10-16T01:52:04;97942.47;;;15.00;100.00
36538;BME280;22545;48.892;9.138;2022-10-16T01:54:30;97926.63;;;14.90;100.00
36538;BME280;22545;48.892;9.138;2022-10-16T01:56:57;97923.25;;;15.04;100.00
36538;BME280;22545;48.892;9.138;2022-10-16T01:59:24;97917.22;;;15.03;100.00
36538;BME280;22545;48.892;9.138;2022-10-16T02:01:52;97915.41;;;15.06;100.00
36538;BME280;22545;48.892;9.138;2022-10-16T02:04:24;97931.03;;;15.04;100.00
36538;BME280;22545;48.892;9.138;2022-10-16T02:06:52;97924.09;;;15.04;100.00
36538;BME280;22545;48.892;9.138;2022-10-16T02:09:17;97926.03;;;15.01;100.00
36538;BME280;22545;48.892;9.138;2022-10-16T02:11:43;97928.63;;;15.01;100.00
36538;BME280;22545;48.892;9.138;2022-10-16T02:14:08;97934.53;;;15.03;100.00
36538;BME280;22545;48.892;9.138;2022-10-16T02:16:38;97928.69;;;14.99;100.00
36538;BME280;22545;48.892;9.138;2022-10-16T02:19:03;97928.84;;;14.96;100.00
36538;BME280;22545;48.892;9.138;2022-10-16T02:21:30;97933.13;;;14.97;100.00
36538;BME280;22545;48.892;9.138;2022-10-16T02:26:28;97930.44;;;14.99;100.00
36538;BME280;22545;48.892;9.138;2022-10-16T02:28:58;97931.44;;;14.96;100.00
36538;BME280;22545;48.892;9.138;2022-10-16T02:31:27;97927.56;;;14.89;100.00
36538;BME280;22545;48.892;9.138;2022-10-16T02:33:54;97934.97;;;14.95;100.00
36538;BME280;22545;48.892;9.138;2022-10-16T02:36:21;97935.16;;;14.92;100.00
36538;BME280;22545;48.892;9.138;2022-10-16T02:38:46;97934.22;;;14.93;100.00
36538;BME280;22545;48.892;9.138;2022-10-16T02:41:12;97935.97;;;14.93;100.00
36538;BME280;22545;48.892;9.138;2022-10-16T02:43:37;97935.88;;;14.94;100.00
36538;BME280;22545;48.892;9.138;2022-10-16T02:46:02;97933.25;;;14.80;100.00
36538;BME280;22545;48.892;9.138;2022-10-16T02:48:28;97951.25;;;14.97;100.00
36538;BME280;22545;48.892;9.138;2022-10-16T02:50:53;97951.34;;;14.96;100.00
36538;BME280;22545;48.892;9.138;2022-10-16T02:53:18;97949.16;;;15.04;100.00
36538;BME280;22545;48.892;9.138;2022-10-16T02:55:43;97938.03;;;15.02;100.00
36538;BME280;22545;48.892;9.138;2022-10-16T02:58:08;97950.00;;;14.89;100.00
36538;BME280;22545;48.892;9.138;2022-10-16T03:00:34;97948.53;;;14.84;100.00
36538;BME280;22545;48.892;9.138;2022-10-16T03:02:59;97952.78;;;14.85;100.00
36538;BME280;22545;48.892;9.138;2022-10-16T03:05:24;97952.50;;;14.90;100.00
36538;BME280;22545;48.892;9.138;2022-10-16T03:07:49;97953.63;;;14.86;100.00
36538;BME280;22545;48.892;9.138;2022-10-16T03:10:15;97946.75;;;15.01;100.00
36538;BME280;22545;48.892;9.138;2022-10-16T03:12:40;97951.06;;;15.00;100.00
36538;BME280;22545;48.892;9.138;2022-10-16T03:15:05;97952.66;;;15.03;100.00
36538;BME280;22545;48.892;9.138;2022-10-16T03:17:31;97957.53;;;14.93;100.00
36538;BME280;22545;48.892;9.138;2022-10-16T03:19:57;97950.16;;;15.01;100.00
36538;BME280;22545;48.892;9.138;2022-10-16T03:22:22;97955.03;;;14.92;100.00
36538;BME280;22545;48.892;9.138;2022-10-16T03:24:47;97946.34;;;14.93;100.00
36538;BME280;22545;48.892;9.138;2022-10-16T03:27:12;97949.50;;;14.98;100.00
36538;BME280;22545;48.892;9.138;2022-10-16T03:29:37;97952.34;;;14.93;100.00
36538;BME280;22545;48.892;9.138;2022-10-16T03:32:03;97957.13;;;14.85;100.00
36538;BME280;22545;48.892;9.138;2022-10-16T03:34:28;97953.63;;;14.86;100.00
36538;BME280;22545;48.892;9.138;2022-10-16T03:36:53;97951.03;;;14.86;100.00
36538;BME280;22545;48.892;9.138;2022-10-16T03:39:19;97956.31;;;14.84;100.00
36538;BME280;22545;48.892;9.138;2022-10-16T03:41:44;97949.53;;;14.82;100.00
36538;BME280;22545;48.892;9.138;2022-10-16T03:44:11;97949.63;;;14.80;100.00
36538;BME280;22545;48.892;9.138;2022-10-16T03:46:36;97954.44;;;14.86;100.00
36538;BME280;22545;48.892;9.138;2022-10-16T03:49:01;97958.31;;;14.79;100.00
36538;BME280;22545;48.892;9.138;2022-10-16T03:51:26;97958.91;;;14.68;100.00
36538;BME280;22545;48.892;9.138;2022-10-16T03:53:52;97963.19;;;14.69;100.00
36538;BME280;22545;48.892;9.138;2022-10-16T03:56:18;97958.34;;;14.63;100.00
36538;BME280;22545;48.892;9.138;2022-10-16T03:58:43;97958.31;;;14.47;100.00
36538;BME280;22545;48.892;9.138;2022-10-16T04:01:08;97961.63;;;14.49;100.00
36538;BME280;22545;48.892;9.138;2022-10-16T04:03:33;97951.19;;;14.51;100.00
36538;BME280;22545;48.892;9.138;2022-10-16T04:05:58;97946.63;;;14.40;100.00
36538;BME280;22545;48.892;9.138;2022-10-16T04:08:24;97956.63;;;14.46;100.00
36538;BME280;22545;48.892;9.138;2022-10-16T04:10:49;97954.03;;;14.46;100.00
36538;BME280;22545;48.892;9.138;2022-10-16T04:13:14;97963.66;;;14.44;100.00
36538;BME280;22545;48.892;9.138;2022-10-16T04:15:40;97962.13;;;14.40;100.00
36538;BME280;22545;48.892;9.138;2022-10-16T04:18:05;97956.38;;;14.35;100.00
36538;BME280;22545;48.892;9.138;2022-10-16T04:20:31;97959.72;;;14.21;100.00
36538;BME280;22545;48.892;9.138;2022-10-16T04:22:56;97962.72;;;14.29;100.00
36538;BME280;22545;48.892;9.138;2022-10-16T04:25:21;97970.84;;;14.39;100.00
36538;BME280;22545;48.892;9.138;2022-10-16T04:27:46;97962.56;;;14.32;100.00
36538;BME280;22545;48.892;9.138;2022-10-16T04:30:12;97961.56;;;14.35;100.00
36538;BME280;22545;48.892;9.138;2022-10-16T04:32:37;97961.06;;;14.44;100.00
36538;BME280;22545;48.892;9.138;2022-10-16T04:35:03;97958.03;;;14.36;100.00
36538;BME280;22545;48.892;9.138;2022-10-16T04:37:28;97974.41;;;14.37;100.00
36538;BME280;22545;48.892;9.138;2022-10-16T04:39:53;97976.84;;;14.40;100.00
36538;BME280;22545;48.892;9.138;2022-10-16T04:42:19;97974.16;;;14.41;100.00
36538;BME280;22545;48.892;9.138;2022-10-16T04:44:44;97986.00;;;14.29;100.00
36538;BME280;22545;48.892;9.138;2022-10-16T04:47:09;97971.91;;;14.35;100.00
36538;BME280;22545;48.892;9.138;2022-10-16T04:49:34;97981.66;;;14.30;100.00
36538;BME280;22545;48.892;9.138;2022-10-16T04:51:59;97980.06;;;14.43;100.00
36538;BME280;22545;48.892;9.138;2022-10-16T04:54:25;97991.78;;;14.50;100.00
36538;BME280;22545;48.892;9.138;2022-10-16T04:56:50;97993.94;;;14.58;100.00
36538;BME280;22545;48.892;9.138;2022-10-16T04:59:17;98002.34;;;14.63;100.00
36538;BME280;22545;48.892;9.138;2022-10-16T05:01:42;98000.19;;;14.54;100.00
36538;BME280;22545;48.892;9.138;2022-10-16T05:04:08;98004.06;;;14.47;100.00
36538;BME280;22545;48.892;9.138;2022-10-16T05:06:33;98003.81;;;14.51;100.00
36538;BME280;22545;48.892;9.138;2022-10-16T05:08:58;98008.22;;;14.49;100.00
36538;BME280;22545;48.892;9.138;2022-10-16T05:11:24;98018.81;;;14.45;100.00
36538;BME280;22545;48.892;9.138;2022-10-16T05:13:49;97999.69;;;14.47;100.00
36538;BME280;22545;48.892;9.138;2022-10-16T05:16:14;98001.28;;;14.34;100.00
36538;BME280;22545;48.892;9.138;2022-10-16T05:18:39;97999.69;;;14.47;100.00
36538;BME280;22545;48.892;9.138;2022-10-16T05:21:05;97997.19;;;14.46;100.00
36538;BME280;22545;48.892;9.138;2022-10-16T05:23:30;97996.72;;;14.39;100.00
36538;BME280;22545;48.892;9.138;2022-10-16T05:25:56;97989.69;;;14.41;100.00
36538;BME280;22545;48.892;9.138;2022-10-16T05:28:23;97994.69;;;14.44;100.00
36538;BME280;22545;48.892;9.138;2022-10-16T05:30:49;97997.69;;;14.52;100.00
36538;BME280;22545;48.892;9.138;2022-10-16T05:33:14;98001.38;;;14.48;100.00
36538;BME280;22545;48.892;9.138;2022-10-16T05:35:39;97991.94;;;14.47;100.00
36538;BME280;22545;48.892;9.138;2022-10-16T05:38:04;97999.94;;;14.59;100.00
36538;BME280;22545;48.892;9.138;2022-10-16T05:40:29;98005.69;;;14.48;100.00
36538;BME280;22545;48.892;9.138;2022-10-16T05:42:55;98012.97;;;14.57;100.00
36538;BME280;22545;48.892;9.138;2022-10-16T05:45:20;98008.22;;;14.49;100.00
36538;BME280;22545;48.892;9.138;2022-10-16T05:47:46;98005.13;;;14.59;100.00
36538;BME280;22545;48.892;9.138;2022-10-16T05:50:11;98017.00;;;14.63;100.00
36538;BME280;22545;48.892;9.138;2022-10-16T05:52:36;98013.56;;;14.46;100.00
36538;BME280;22545;48.892;9.138;2022-10-16T05:55:01;98018.41;;;14.52;100.00
36538;BME280;22545;48.892;9.138;2022-10-16T05:57:27;98023.56;;;14.52;100.00
36538;BME280;22545;48.892;9.138;2022-10-16T05:59:52;98026.94;;;14.55;100.00
36538;BME280;22545;48.892;9.138;2022-10-16T06:02:17;98027.19;;;14.50;100.00
36538;BME280;22545;48.892;9.138;2022-10-16T06:04:42;98028.81;;;14.51;100.00
36538;BME280;22545;48.892;9.138;2022-10-16T06:07:07;98032.44;;;14.48;100.00
36538;BME280;22545;48.892;9.138;2022-10-16T06:09:33;98026.16;;;14.37;100.00
36538;BME280;22545;48.892;9.138;2022-10-16T06:11:58;98027.31;;;14.31;100.00
36538;BME280;22545;48.892;9.138;2022-10-16T06:14:23;98026.72;;;14.26;100.00
36538;BME280;22545;48.892;9.138;2022-10-16T06:16:48;98020.47;;;14.30;100.00
36538;BME280;22545;48.892;9.138;2022-10-16T06:19:14;98027.16;;;14.34;100.00
36538;BME280;22545;48.892;9.138;2022-10-16T06:21:41;98035.16;;;14.29;100.00
36538;BME280;22545;48.892;9.138;2022-10-16T06:24:06;98043.97;;;14.25;100.00
36538;BME280;22545;48.892;9.138;2022-10-16T06:26:32;98043.25;;;14.23;100.00
36538;BME280;22545;48.892;9.138;2022-10-16T06:28:58;98035.72;;;14.19;100.00
36538;BME280;22545;48.892;9.138;2022-10-16T06:31:23;98044.38;;;14.18;100.00
36538;BME280;22545;48.892;9.138;2022-10-16T06:33:52;98037.41;;;14.20;100.00
36538;BME280;22545;48.892;9.138;2022-10-16T06:36:18;98039.91;;;14.21;100.00
36538;BME280;22545;48.892;9.138;2022-10-16T06:38:44;98041.16;;;14.30;100.00
36538;BME280;22545;48.892;9.138;2022-10-16T06:41:10;98040.50;;;14.26;100.00
36538;BME280;22545;48.892;9.138;2022-10-16T06:43:36;98051.66;;;14.27;100.00
36538;BME280;22545;48.892;9.138;2022-10-16T06:46:02;98057.88;;;14.40;100.00
36538;BME280;22545;48.892;9.138;2022-10-16T06:48:28;98059.38;;;14.44;100.00
36538;BME280;22545;48.892;9.138;2022-10-16T06:53:24;98066.75;;;14.52;100.00
36538;BME280;22545;48.892;9.138;2022-10-16T06:55:50;98074.34;;;14.55;100.00
36538;BME280;22545;48.892;9.138;2022-10-16T06:58:15;98083.88;;;14.55;100.00
36538;BME280;22545;48.892;9.138;2022-10-16T07:00:40;98079.44;;;14.57;100.00
36538;BME280;22545;48.892;9.138;2022-10-16T07:03:06;98090.19;;;14.66;100.00
36538;BME280;22545;48.892;9.138;2022-10-16T07:05:31;98087.91;;;14.76;100.00
36538;BME280;22545;48.892;9.138;2022-10-16T07:07:56;98083.47;;;14.78;100.00
36538;BME280;22545;48.892;9.138;2022-10-16T07:10:21;98096.13;;;14.84;100.00
36538;BME280;22545;48.892;9.138;2022-10-16T07:12:49;98097.53;;;14.90;100.00
36538;BME280;22545;48.892;9.138;2022-10-16T07:15:14;98098.03;;;14.97;100.00
36538;BME280;22545;48.892;9.138;2022-10-16T07:17:39;98105.22;;;14.92;100.00
36538;BME280;22545;48.892;9.138;2022-10-16T07:20:04;98111.72;;;14.99;100.00
36538;BME280;22545;48.892;9.138;2022-10-16T07:22:30;98109.84;;;15.02;100.00
36538;BME280;22545;48.892;9.138;2022-10-16T07:24:55;98114.81;;;14.90;100.00
36538;BME280;22545;48.892;9.138;2022-10-16T07:27:20;98130.19;;;14.93;100.00
36538;BME280;22545;48.892;9.138;2022-10-16T07:29:48;98118.91;;;15.10;100.00
36538;BME280;22545;48.892;9.138;2022-10-16T07:32:14;98122.00;;;15.00;100.00
36538;BME280;22545;48.892;9.138;2022-10-16T07:34:39;98127.28;;;14.99;100.00
36538;BME280;22545;48.892;9.138;2022-10-16T07:37:04;98138.63;;;14.96;100.00
36538;BME280;22545;48.892;9.138;2022-10-16T07:39:29;98087.69;;;14.65;100.00
36538;BME280;22545;48.892;9.138;2022-10-16T07:41:55;98126.41;;;14.82;100.00
36538;BME280;22545;48.892;9.138;2022-10-16T07:44:20;98126.41;;;14.82;100.00
36538;BME280;22545;48.892;9.138;2022-10-16T07:46:45;98125.00;;;14.77;100.00
36538;BME280;22545;48.892;9.138;2022-10-16T07:49:11;98115.97;;;14.68;100.00
36538;BME280;22545;48.892;9.138;2022-10-16T07:51:36;98126.75;;;14.76;100.00
36538;BME280;22545;48.892;9.138;2022-10-16T07:54:03;98071.41;;;14.45;100.00
36538;BME280;22545;48.892;9.138;2022-10-16T07:56:29;98133.63;;;14.77;100.00
36538;BME280;22545;48.892;9.138;2022-10-16T07:58:55;98144.88;;;14.76;100.00
36538;BME280;22545;48.892;9.138;2022-10-16T08:01:21;98146.22;;;14.83;100.00
36538;BME280;22545;48.892;9.138;2022-10-16T08:03:47;98143.81;;;14.96;100.00
36538;BME280;22545;48.892;9.138;2022-10-16T08:06:13;98146.19;;;15.01;100.00
36538;BME280;22545;48.892;9.138;2022-10-16T08:08:39;98143.91;;;15.11;100.00
36538;BME280;22545;48.892;9.138;2022-10-16T08:11:04;98150.59;;;15.31;100.00
36538;BME280;22545;48.892;9.138;2022-10-16T08:13:30;98142.19;;;15.57;100.00
36538;BME280;22545;48.892;9.138;2022-10-16T08:15:55;98150.41;;;15.66;100.00
36538;BME280;22545;48.892;9.138;2022-10-16T08:18:21;98150.03;;;15.72;100.00
36538;BME280;22545;48.892;9.138;2022-10-16T08:20:46;98140.56;;;16.17;100.00
36538;BME280;22545;48.892;9.138;2022-10-16T08:23:12;98148.78;;;17.39;100.00
36538;BME280;22545;48.892;9.138;2022-10-16T08:25:38;98149.38;;;17.70;100.00
36538;BME280;22545;48.892;9.138;2022-10-16T08:28:04;98156.66;;;17.65;100.00
36538;BME280;22545;48.892;9.138;2022-10-16T08:30:30;98157.63;;;17.22;100.00
36538;BME280;22545;48.892;9.138;2022-10-16T08:32:56;98161.94;;;17.09;100.00
36538;BME280;22545;48.892;9.138;2022-10-16T08:35:21;98168.19;;;17.19;100.00
36538;BME280;22545;48.892;9.138;2022-10-16T08:37:46;98171.41;;;16.95;100.00
36538;BME280;22545;48.892;9.138;2022-10-16T08:40:19;98176.31;;;17.42;100.00
36538;BME280;22545;48.892;9.138;2022-10-16T08:50:12;98167.78;;;16.84;100.00
36538;BME280;22545;48.892;9.138;2022-10-16T08:52:41;98162.28;;;16.74;100.00
36538;BME280;22545;48.892;9.138;2022-10-16T08:57:48;98166.75;;;16.72;100.00
36538;BME280;22545;48.892;9.138;2022-10-16T09:00:14;98106.66;;;16.35;100.00
36538;BME280;22545;48.892;9.138;2022-10-16T09:02:59;98158.22;;;16.70;100.00
36538;BME280;22545;48.892;9.138;2022-10-16T09:08:28;98161.66;;;16.85;100.00
36538;BME280;22545;48.892;9.138;2022-10-16T09:10:58;98171.78;;;16.89;100.00
36538;BME280;22545;48.892;9.138;2022-10-16T09:18:34;98185.03;;;16.99;100.00
36538;BME280;22545;48.892;9.138;2022-10-16T09:23:32;98177.19;;;17.97;100.00
36538;BME280;22545;48.892;9.138;2022-10-16T09:25:58;98192.03;;;18.48;100.00
36538;BME280;22545;48.892;9.138;2022-10-16T09:28:24;98196.44;;;18.73;100.00
36538;BME280;22545;48.892;9.138;2022-10-16T09:30:49;98205.72;;;18.90;100.00
36538;BME280;22545;48.892;9.138;2022-10-16T09:33:15;98201.00;;;18.95;100.00
36538;BME280;22545;48.892;9.138;2022-10-16T09:35:43;98205.56;;;18.79;100.00
36538;BME280;22545;48.892;9.138;2022-10-16T09:38:09;98215.03;;;19.92;100.00
36538;BME280;22545;48.892;9.138;2022-10-16T09:40:45;98220.47;;;19.89;100.00
36538;BME280;22545;48.892;9.138;2022-10-16T09:43:24;98219.31;;;19.93;100.00
36538;BME280;22545;48.892;9.138;2022-10-16T09:48:21;98218.47;;;20.86;100.00
36538;BME280;22545;48.892;9.138;2022-10-16T09:50:55;98217.41;;;20.89;100.00
36538;BME280;22545;48.892;9.138;2022-10-16T09:53:20;98222.16;;;21.52;100.00
36538;BME280;22545;48.892;9.138;2022-10-16T09:55:51;98222.72;;;21.99;100.00
36538;BME280;22545;48.892;9.138;2022-10-16T09:58:16;98224.47;;;23.25;100.00
36538;BME280;22545;48.892;9.138;2022-10-16T10:00:42;98224.44;;;23.66;100.00
36538;BME280;22545;48.892;9.138;2022-10-16T10:03:17;98231.53;;;23.35;100.00
36538;BME280;22545;48.892;9.138;2022-10-16T10:05:48;98234.19;;;21.98;100.00
36538;BME280;22545;48.892;9.138;2022-10-16T10:08:14;98227.53;;;20.82;100.00
36538;BME280;22545;48.892;9.138;2022-10-16T10:10:41;98232.75;;;20.82;100.00
36538;BME280;22545;48.892;9.138;2022-10-16T10:13:20;98235.03;;;20.40;100.00
36538;BME280;22545;48.892;9.138;2022-10-16T10:15:45;98232.63;;;20.73;100.00
36538;BME280;22545;48.892;9.138;2022-10-16T10:18:21;98237.31;;;20.56;100.00
36538;BME280;22545;48.892;9.138;2022-10-16T10:20:56;98238.09;;;20.92;100.00
36538;BME280;22545;48.892;9.138;2022-10-16T10:23:23;98238.09;;;21.37;100.00
36538;BME280;22545;48.892;9.138;2022-10-16T10:28:37;98225.75;;;20.94;100.00
36538;BME280;22545;48.892;9.138;2022-10-16T10:33:41;98240.47;;;21.18;100.00
36538;BME280;22545;48.892;9.138;2022-10-16T10:38:49;98239.19;;;21.24;100.00
36538;BME280;22545;48.892;9.138;2022-10-16T10:43:59;98247.50;;;21.51;100.00
36538;BME280;22545;48.892;9.138;2022-10-16T10:46:36;98241.91;;;22.00;100.00
36538;BME280;22545;48.892;9.138;2022-10-16T10:57:21;98238.44;;;22.74;100.00
36538;BME280;22545;48.892;9.138;2022-10-16T11:08:00;98242.88;;;22.31;100.00
36538;BME280;22545;48.892;9.138;2022-10-16T11:10:26;98241.38;;;22.59;100.00
36538;BME280;22545;48.892;9.138;2022-10-16T11:12:58;98235.06;;;22.62;100.00
36538;BME280;22545;48.892;9.138;2022-10-16T11:15:35;98237.56;;;22.63;100.00
36538;BME280;22545;48.892;9.138;2022-10-16T11:18:15;98232.66;;;22.70;100.00
36538;BME280;22545;48.892;9.138;2022-10-16T11:20:42;98234.63;;;22.36;100.00
36538;BME280;22545;48.892;9.138;2022-10-16T11:23:16;98229.06;;;22.50;100.00
36538;BME280;22545;48.892;9.138;2022-10-16T11:25:43;98232.28;;;22.54;100.00
36538;BME280;22545;48.892;9.138;2022-10-16T11:35:42;98222.91;;;22.61;100.00
36538;BME280;22545;48.892;9.138;2022-10-16T11:40:53;98229.75;;;22.73;100.00
36538;BME280;22545;48.892;9.138;2022-10-16T11:43:32;98229.03;;;22.71;100.00
36538;BME280;22545;48.892;9.138;2022-10-16T11:45:59;98235.81;;;23.05;100.00
36538;BME280;22545;48.892;9.138;2022-10-16T11:48:31;98229.16;;;22.70;100.00
36538;BME280;22545;48.892;9.138;2022-10-16T11:51:10;98241.84;;;22.43;100.00
36538;BME280;22545;48.892;9.138;2022-10-16T11:53:46;98230.28;;;22.14;100.00
36538;BME280;22545;48.892;9.138;2022-10-16T11:56:15;98225.91;;;21.82;100.00
36538;BME280;22545;48.892;9.138;2022-10-16T11:58:43;98233.50;;;21.85;100.00
36538;BME280;22545;48.892;9.138;2022-10-16T12:03:42;98231.19;;;22.03;100.00
36538;BME280;22545;48.892;9.138;2022-10-16T12:06:13;98215.63;;;22.22;100.00
36538;BME280;22545;48.892;9.138;2022-10-16T12:08:40;98224.53;;;22.31;100.00
36538;BME280;22545;48.892;9.138;2022-10-16T12:11:06;98224.41;;;22.33;100.00
36538;BME280;22545;48.892;9.138;2022-10-16T12:13:36;98222.47;;;22.02;100.00
36538;BME280;22545;48.892;9.138;2022-10-16T12:18:30;98216.47;;;21.90;100.00
36538;BME280;22545;48.892;9.138;2022-10-16T12:20:59;98218.56;;;21.64;100.00
36538;BME280;22545;48.892;9.138;2022-10-16T12:23:29;98216.56;;;21.56;100.00
36538;BME280;22545;48.892;9.138;2022-10-16T12:25:55;98222.03;;;21.53;100.00
36538;BME280;22545;48.892;9.138;2022-10-16T12:28:22;98223.25;;;21.38;100.00
36538;BME280;22545;48.892;9.138;2022-10-16T12:30:55;98207.19;;;21.31;100.00
36538;BME280;22545;48.892;9.138;2022-10-16T12:33:24;98210.53;;;21.33;100.00
36538;BME280;22545;48.892;9.138;2022-10-16T12:35:50;98213.25;;;21.32;100.00
36538;BME280;22545;48.892;9.138;2022-10-16T12:41:01;98209.41;;;21.47;100.00
36538;BME280;22545;48.892;9.138;2022-10-16T12:43:36;98220.38;;;21.41;100.00
36538;BME280;22545;48.892;9.138;2022-10-16T12:48:34;98222.00;;;21.65;100.00
36538;BME280;22545;48.892;9.138;2022-10-16T12:51:22;98221.06;;;21.66;100.00
36538;BME280;22545;48.892;9.138;2022-10-16T12:53:45;98218.63;;;21.19;100.00
36538;BME280;22545;48.892;9.138;2022-10-16T12:56:18;98225.75;;;21.06;100.00
36538;BME280;22545;48.892;9.138;2022-10-16T13:01:29;98228.03;;;20.99;100.00
36538;BME280;22545;48.892;9.138;2022-10-16T13:11:17;98229.53;;;21.24;100.00
36538;BME280;22545;48.892;9.138;2022-10-16T13:21:50;98240.56;;;21.62;100.00
36538;BME280;22545;48.892;9.138;2022-10-16T13:29:44;98233.69;;;21.61;100.00
36538;BME280;22545;48.892;9.138;2022-10-16T13:32:10;98232.84;;;21.60;100.00
36538;BME280;22545;48.892;9.138;2022-10-16T13:34:44;98237.72;;;21.65;100.00
36538;BME280;22545;48.892;9.138;2022-10-16T13:37:17;98234.75;;;21.58;100.00
36538;BME280;22545;48.892;9.138;2022-10-16T13:39:43;98240.38;;;21.53;100.00
36538;BME280;22545;48.892;9.138;2022-10-16T13:42:12;98239.88;;;21.37;100.00
36538;BME280;22545;48.892;9.138;2022-10-16T13:44:42;98237.03;;;21.29;100.00
36538;BME280;22545;48.892;9.138;2022-10-16T13:47:18;98239.28;;;21.22;100.00
36538;BME280;22545;48.892;9.138;2022-10-16T13:49:44;98245.59;;;21.08;100.00
36538;BME280;22545;48.892;9.138;2022-10-16T13:52:19;98242.50;;;21.14;100.00
36538;BME280;22545;48.892;9.138;2022-10-16T13:54:45;98243.91;;;21.30;100.00
36538;BME280;22545;48.892;9.138;2022-10-16T13:57:14;98233.56;;;21.28;100.00
36538;BME280;22545;48.892;9.138;2022-10-16T13:59:39;98238.47;;;21.21;100.00
36538;BME280;22545;48.892;9.138;2022-10-16T14:02:50;98226.69;;;21.16;100.00
36538;BME280;22545;48.892;9.138;2022-10-16T14:04:50;98233.84;;;21.14;100.00
36538;BME280;22545;48.892;9.138;2022-10-16T14:07:26;98234.66;;;21.03;100.00
36538;BME280;22545;48.892;9.138;2022-10-16T14:09:52;98236.56;;;21.01;100.00
36538;BME280;22545;48.892;9.138;2022-10-16T14:12:18;98228.38;;;20.94;100.00
36538;BME280;22545;48.892;9.138;2022-10-16T14:14:46;98240.13;;;20.89;100.00
36538;BME280;22545;48.892;9.138;2022-10-16T14:17:15;98238.22;;;20.79;100.00
36538;BME280;22545;48.892;9.138;2022-10-16T14:19:45;98242.00;;;20.86;100.00
36538;BME280;22545;48.892;9.138;2022-10-16T14:22:18;98228.34;;;20.83;100.00
36538;BME280;22545;48.892;9.138;2022-10-16T14:24:46;98229.78;;;20.87;100.00
36538;BME280;22545;48.892;9.138;2022-10-16T14:30:18;98243.22;;;20.82;100.00
36538;BME280;22545;48.892;9.138;2022-10-16T14:32:41;98241.06;;;20.88;100.00
36538;BME280;22545;48.892;9.138;2022-10-16T14:35:56;98252.81;;;20.82;100.00
36538;BME280;22545;48.892;9.138;2022-10-16T14:37:56;98243.56;;;20.89;100.00
36538;BME280;22545;48.892;9.138;2022-10-16T14:40:26;98239.31;;;20.99;100.00
36538;BME280;22545;48.892;9.138;2022-10-16T14:42:52;98244.16;;;20.81;100.00
36538;BME280;22545;48.892;9.138;2022-10-16T14:45:18;98246.31;;;20.76;100.00